sensor_id;sensor_type;location;lat;lon;timestamp;temperature;humidity
79356;SHT31;68825;51.978;5.654;2023-09-18T00:01:56;21.7;77.5
79356;SHT31;68825;51.978;5.654;2023-09-18T00:04:25;21.7;77.5
79356;SHT31;68825;51.978;5.654;2023-09-18T00:06:53;21.7;77.5
79356;SHT31;68825;51.978;5.654;2023-09-18T00:09:22;21.7;77.5
79356;SHT31;68825;51.978;5.654;2023-09-18T00:11:51;21.7;77.6
79356;SHT31;68825;51.978;5.654;2023-09-18T00:14:19;21.7;77.6
79356;SHT31;68825;51.978;5.654;2023-09-18T00:16:48;21.7;77.4
79356;SHT31;68825;51.978;5.654;2023-09-18T00:19:18;21.8;77.4
79356;SHT31;68825;51.978;5.654;2023-09-18T00:21:47;21.8;77.5
79356;SHT31;68825;51.978;5.654;2023-09-18T00:24:15;21.8;77.4
79356;SHT31;68825;51.978;5.654;2023-09-18T00:26:44;21.8;77.3
79356;SHT31;68825;51.978;5.654;2023-09-18T00:29:15;21.8;77.5
79356;SHT31;68825;51.978;5.654;2023-09-18T00:31:43;21.8;77.4
79356;SHT31;68825;51.978;5.654;2023-09-18T00:34:12;21.8;77.6
79356;SHT31;68825;51.978;5.654;2023-09-18T00:36:40;21.8;77.5
79356;SHT31;68825;51.978;5.654;2023-09-18T00:39:09;21.8;77.4
79356;SHT31;68825;51.978;5.654;2023-09-18T00:41:38;21.7;77.4
79356;SHT31;68825;51.978;5.654;2023-09-18T00:44:07;21.7;77.5
79356;SHT31;68825;51.978;5.654;2023-09-18T00:46:36;21.7;77.5
79356;SHT31;68825;51.978;5.654;2023-09-18T00:49:07;21.7;77.4
79356;SHT31;68825;51.978;5.654;2023-09-18T00:51:36;21.8;77.4
79356;SHT31;68825;51.978;5.654;2023-09-18T00:54:06;21.8;77.4
79356;SHT31;68825;51.978;5.654;2023-09-18T00:56:35;21.8;77.3
79356;SHT31;68825;51.978;5.654;2023-09-18T00:59:04;21.8;77.4
79356;SHT31;68825;51.978;5.654;2023-09-18T01:01:35;21.8;77.4
79356;SHT31;68825;51.978;5.654;2023-09-18T01:04:04;21.8;77.4
79356;SHT31;68825;51.978;5.654;2023-09-18T01:06:35;21.8;77.4
79356;SHT31;68825;51.978;5.654;2023-09-18T01:09:05;21.8;77.5
79356;SHT31;68825;51.978;5.654;2023-09-18T01:11:44;21.8;77.5
79356;SHT31;68825;51.978;5.654;2023-09-18T01:14:27;21.8;77.5
79356;SHT31;68825;51.978;5.654;2023-09-18T01:16:58;21.8;77.5
79356;SHT31;68825;51.978;5.654;2023-09-18T01:19:39;21.8;77.5
79356;SHT31;68825;51.978;5.654;2023-09-18T01:22:12;21.7;77.6
79356;SHT31;68825;51.978;5.654;2023-09-18T01:24:41;21.7;77.7
79356;SHT31;68825;51.978;5.654;2023-09-18T01:27:13;21.7;77.7
79356;SHT31;68825;51.978;5.654;2023-09-18T01:29:43;21.7;77.6
79356;SHT31;68825;51.978;5.654;2023-09-18T01:32:12;21.7;77.8
79356;SHT31;68825;51.978;5.654;2023-09-18T01:34:46;21.7;77.6
79356;SHT31;68825;51.978;5.654;2023-09-18T01:37:17;21.7;77.7
79356;SHT31;68825;51.978;5.654;2023-09-18T01:39:49;21.7;77.7
79356;SHT31;68825;51.978;5.654;2023-09-18T01:42:18;21.7;77.6
79356;SHT31;68825;51.978;5.654;2023-09-18T01:44:47;21.7;77.7
79356;SHT31;68825;51.978;5.654;2023-09-18T01:47:18;21.7;77.7
79356;SHT31;68825;51.978;5.654;2023-09-18T01:49:48;21.7;77.7
79356;SHT31;68825;51.978;5.654;2023-09-18T01:52:17;21.7;77.7
79356;SHT31;68825;51.978;5.654;2023-09-18T01:54:47;21.7;77.8
79356;SHT31;68825;51.978;5.654;2023-09-18T01:57:17;21.7;77.8
79356;SHT31;68825;51.978;5.654;2023-09-18T01:59:45;21.7;77.8
79356;SHT31;68825;51.978;5.654;2023-09-18T02:02:14;21.7;77.8
79356;SHT31;68825;51.978;5.654;2023-09-18T02:04:47;21.7;77.7
79356;SHT31;68825;51.978;5.654;2023-09-18T02:07:16;21.7;77.7
79356;SHT31;68825;51.978;5.654;2023-09-18T02:09:44;21.7;77.6
79356;SHT31;68825;51.978;5.654;2023-09-18T02:12:13;21.7;77.5
79356;SHT31;68825;51.978;5.654;2023-09-18T02:14:46;21.8;77.5
79356;SHT31;68825;51.978;5.654;2023-09-18T02:17:17;21.8;77.4
79356;SHT31;68825;51.978;5.654;2023-09-18T02:19:47;21.8;77.3
79356;SHT31;68825;51.978;5.654;2023-09-18T02:22:16;21.8;77.4
79356;SHT31;68825;51.978;5.654;2023-09-18T02:24:46;21.8;77.4
79356;SHT31;68825;51.978;5.654;2023-09-18T02:27:14;21.8;77.3
79356;SHT31;68825;51.978;5.654;2023-09-18T02:29:45;21.8;77.3
79356;SHT31;68825;51.978;5.654;2023-09-18T02:32:18;21.8;77.1
79356;SHT31;68825;51.978;5.654;2023-09-18T02:34:48;21.8;77.1
79356;SHT31;68825;51.978;5.654;2023-09-18T02:37:17;21.8;77.0
79356;SHT31;68825;51.978;5.654;2023-09-18T02:39:46;21.8;76.9
79356;SHT31;68825;51.978;5.654;2023-09-18T02:42:17;21.8;76.9
79356;SHT31;68825;51.978;5.654;2023-09-18T02:44:49;21.8;76.8
79356;SHT31;68825;51.978;5.654;2023-09-18T02:47:17;21.8;76.7
79356;SHT31;68825;51.978;5.654;2023-09-18T02:49:46;21.8;76.8
79356;SHT31;68825;51.978;5.654;2023-09-18T02:52:15;21.8;76.8
79356;SHT31;68825;51.978;5.654;2023-09-18T02:54:43;21.8;76.7
79356;SHT31;68825;51.978;5.654;2023-09-18T02:57:12;21.8;76.6
79356;SHT31;68825;51.978;5.654;2023-09-18T02:59:41;21.8;76.6
79356;SHT31;68825;51.978;5.654;2023-09-18T03:02:10;21.8;76.7
79356;SHT31;68825;51.978;5.654;2023-09-18T03:04:38;21.8;76.8
79356;SHT31;68825;51.978;5.654;2023-09-18T03:07:07;21.9;76.6
79356;SHT31;68825;51.978;5.654;2023-09-18T03:09:36;21.9;76.6
79356;SHT31;68825;51.978;5.654;2023-09-18T03:12:05;21.9;76.5
79356;SHT31;68825;51.978;5.654;2023-09-18T03:14:34;21.9;76.4
79356;SHT31;68825;51.978;5.654;2023-09-18T03:17:03;21.9;76.3
79356;SHT31;68825;51.978;5.654;2023-09-18T03:19:31;21.9;76.3
79356;SHT31;68825;51.978;5.654;2023-09-18T03:22:00;21.9;76.3
79356;SHT31;68825;51.978;5.654;2023-09-18T03:24:28;21.9;76.2
79356;SHT31;68825;51.978;5.654;2023-09-18T03:26:59;21.9;76.2
79356;SHT31;68825;51.978;5.654;2023-09-18T03:29:27;21.9;76.2
79356;SHT31;68825;51.978;5.654;2023-09-18T03:31:56;21.9;76.2
79356;SHT31;68825;51.978;5.654;2023-09-18T03:34:27;21.9;76.4
79356;SHT31;68825;51.978;5.654;2023-09-18T03:36:56;21.9;76.4
79356;SHT31;68825;51.978;5.654;2023-09-18T03:39:24;21.9;76.3
79356;SHT31;68825;51.978;5.654;2023-09-18T03:41:53;21.9;76.3
79356;SHT31;68825;51.978;5.654;2023-09-18T03:44:21;21.9;76.5
79356;SHT31;68825;51.978;5.654;2023-09-18T03:46:50;21.9;76.4
79356;SHT31;68825;51.978;5.654;2023-09-18T03:49:19;21.9;76.4
79356;SHT31;68825;51.978;5.654;2023-09-18T03:51:47;21.9;76.2
79356;SHT31;68825;51.978;5.654;2023-09-18T03:54:16;21.9;76.2
79356;SHT31;68825;51.978;5.654;2023-09-18T03:56:45;21.9;76.2
79356;SHT31;68825;51.978;5.654;2023-09-18T03:59:14;21.9;76.2
79356;SHT31;68825;51.978;5.654;2023-09-18T04:01:45;21.9;76.1
79356;SHT31;68825;51.978;5.654;2023-09-18T04:04:14;21.9;76.1
79356;SHT31;68825;51.978;5.654;2023-09-18T04:06:43;21.9;76.1
79356;SHT31;68825;51.978;5.654;2023-09-18T04:09:14;21.9;76.2
79356;SHT31;68825;51.978;5.654;2023-09-18T04:11:45;21.9;76.2
79356;SHT31;68825;51.978;5.654;2023-09-18T04:14:17;21.9;76.3
79356;SHT31;68825;51.978;5.654;2023-09-18T04:16:46;21.9;76.3
79356;SHT31;68825;51.978;5.654;2023-09-18T04:19:14;21.9;76.2
79356;SHT31;68825;51.978;5.654;2023-09-18T04:21:46;21.8;76.2
79356;SHT31;68825;51.978;5.654;2023-09-18T04:24:14;21.8;76.1
79356;SHT31;68825;51.978;5.654;2023-09-18T04:26:44;21.8;76.4
79356;SHT31;68825;51.978;5.654;2023-09-18T04:29:15;21.8;76.4
79356;SHT31;68825;51.978;5.654;2023-09-18T04:31:43;21.8;76.5
79356;SHT31;68825;51.978;5.654;2023-09-18T04:34:12;21.8;76.7
79356;SHT31;68825;51.978;5.654;2023-09-18T04:36:41;21.8;76.8
79356;SHT31;68825;51.978;5.654;2023-09-18T04:39:10;21.8;76.8
79356;SHT31;68825;51.978;5.654;2023-09-18T04:41:40;21.8;77.1
79356;SHT31;68825;51.978;5.654;2023-09-18T04:44:10;21.8;77.2
79356;SHT31;68825;51.978;5.654;2023-09-18T04:46:40;21.8;77.3
79356;SHT31;68825;51.978;5.654;2023-09-18T04:49:10;21.8;77.4
79356;SHT31;68825;51.978;5.654;2023-09-18T04:51:39;21.8;77.3
79356;SHT31;68825;51.978;5.654;2023-09-18T04:54:08;21.8;77.4
79356;SHT31;68825;51.978;5.654;2023-09-18T04:56:38;21.8;77.3
79356;SHT31;68825;51.978;5.654;2023-09-18T04:59:08;21.8;77.4
79356;SHT31;68825;51.978;5.654;2023-09-18T05:01:37;21.8;78.1
79356;SHT31;68825;51.978;5.654;2023-09-18T05:04:07;21.8;78.4
79356;SHT31;68825;51.978;5.654;2023-09-18T05:06:37;21.8;78.7
79356;SHT31;68825;51.978;5.654;2023-09-18T05:09:08;21.8;79.1
79356;SHT31;68825;51.978;5.654;2023-09-18T05:11:37;21.7;79.3
79356;SHT31;68825;51.978;5.654;2023-09-18T05:14:08;21.7;79.6
79356;SHT31;68825;51.978;5.654;2023-09-18T05:16:37;21.7;79.9
79356;SHT31;68825;51.978;5.654;2023-09-18T05:19:05;21.7;80.1
79356;SHT31;68825;51.978;5.654;2023-09-18T05:21:35;21.7;80.2
79356;SHT31;68825;51.978;5.654;2023-09-18T05:24:05;21.6;80.3
79356;SHT31;68825;51.978;5.654;2023-09-18T05:26:33;21.6;80.3
79356;SHT31;68825;51.978;5.654;2023-09-18T05:29:02;21.6;80.3
79356;SHT31;68825;51.978;5.654;2023-09-18T05:31:31;21.6;80.4
79356;SHT31;68825;51.978;5.654;2023-09-18T05:34:02;21.6;80.3
79356;SHT31;68825;51.978;5.654;2023-09-18T05:36:33;21.6;80.3
79356;SHT31;68825;51.978;5.654;2023-09-18T05:39:02;21.6;80.1
79356;SHT31;68825;51.978;5.654;2023-09-18T05:41:34;21.7;80.1
79356;SHT31;68825;51.978;5.654;2023-09-18T05:44:03;21.7;79.9
79356;SHT31;68825;51.978;5.654;2023-09-18T05:46:35;21.7;79.9
79356;SHT31;68825;51.978;5.654;2023-09-18T05:49:04;21.7;80.0
79356;SHT31;68825;51.978;5.654;2023-09-18T05:51:33;21.7;79.8
79356;SHT31;68825;51.978;5.654;2023-09-18T05:54:03;21.7;79.8
79356;SHT31;68825;51.978;5.654;2023-09-18T05:56:32;21.7;79.8
79356;SHT31;68825;51.978;5.654;2023-09-18T05:59:01;21.7;79.8
79356;SHT31;68825;51.978;5.654;2023-09-18T06:01:29;21.8;79.6
79356;SHT31;68825;51.978;5.654;2023-09-18T06:04:01;21.8;79.6
79356;SHT31;68825;51.978;5.654;2023-09-18T06:06:30;21.8;79.7
79356;SHT31;68825;51.978;5.654;2023-09-18T06:09:00;21.8;79.6
79356;SHT31;68825;51.978;5.654;2023-09-18T06:11:30;21.8;79.6
79356;SHT31;68825;51.978;5.654;2023-09-18T06:13:58;21.8;79.6
79356;SHT31;68825;51.978;5.654;2023-09-18T06:16:32;21.8;79.6
79356;SHT31;68825;51.978;5.654;2023-09-18T06:19:02;21.8;79.5
79356;SHT31;68825;51.978;5.654;2023-09-18T06:21:31;21.8;79.6
79356;SHT31;68825;51.978;5.654;2023-09-18T06:24:00;21.8;79.7
79356;SHT31;68825;51.978;5.654;2023-09-18T06:26:29;21.8;79.8
79356;SHT31;68825;51.978;5.654;2023-09-18T06:28:57;21.8;79.8
79356;SHT31;68825;51.978;5.654;2023-09-18T06:31:27;21.9;79.8
79356;SHT31;68825;51.978;5.654;2023-09-18T06:33:57;21.9;79.8
79356;SHT31;68825;51.978;5.654;2023-09-18T06:36:26;21.9;79.7
79356;SHT31;68825;51.978;5.654;2023-09-18T06:38:55;21.9;79.7
79356;SHT31;68825;51.978;5.654;2023-09-18T06:41:23;21.9;79.7
79356;SHT31;68825;51.978;5.654;2023-09-18T06:43:52;21.9;79.6
79356;SHT31;68825;51.978;5.654;2023-09-18T06:46:20;21.9;79.6
79356;SHT31;68825;51.978;5.654;2023-09-18T06:48:49;21.9;79.5
79356;SHT31;68825;51.978;5.654;2023-09-18T06:51:18;21.9;79.5
79356;SHT31;68825;51.978;5.654;2023-09-18T06:53:46;21.9;79.6
79356;SHT31;68825;51.978;5.654;2023-09-18T06:56:15;21.9;79.5
79356;SHT31;68825;51.978;5.654;2023-09-18T06:58:46;21.9;79.5
79356;SHT31;68825;51.978;5.654;2023-09-18T07:01:17;21.9;79.5
79356;SHT31;68825;51.978;5.654;2023-09-18T07:03:47;21.9;79.4
79356;SHT31;68825;51.978;5.654;2023-09-18T07:06:17;21.9;79.5
79356;SHT31;68825;51.978;5.654;2023-09-18T07:08:47;21.9;79.5
79356;SHT31;68825;51.978;5.654;2023-09-18T07:11:17;21.9;79.1
79356;SHT31;68825;51.978;5.654;2023-09-18T07:13:45;21.9;79.4
79356;SHT31;68825;51.978;5.654;2023-09-18T07:16:14;21.9;79.0
79356;SHT31;68825;51.978;5.654;2023-09-18T07:18:43;21.9;79.3
79356;SHT31;68825;51.978;5.654;2023-09-18T07:21:11;21.9;79.3
79356;SHT31;68825;51.978;5.654;2023-09-18T07:23:41;21.9;79.1
79356;SHT31;68825;51.978;5.654;2023-09-18T07:26:15;21.9;79.0
79356;SHT31;68825;51.978;5.654;2023-09-18T07:28:45;21.9;78.8
79356;SHT31;68825;51.978;5.654;2023-09-18T07:31:16;21.9;78.9
79356;SHT31;68825;51.978;5.654;2023-09-18T07:33:45;21.9;78.9
79356;SHT31;68825;51.978;5.654;2023-09-18T07:36:14;21.9;78.3
79356;SHT31;68825;51.978;5.654;2023-09-18T07:38:44;21.9;78.6
79356;SHT31;68825;51.978;5.654;2023-09-18T07:41:14;21.9;78.4
79356;SHT31;68825;51.978;5.654;2023-09-18T07:43:42;21.9;78.9
79356;SHT31;68825;51.978;5.654;2023-09-18T07:46:11;21.9;78.2
79356;SHT31;68825;51.978;5.654;2023-09-18T07:48:40;21.9;78.4
79356;SHT31;68825;51.978;5.654;2023-09-18T07:51:12;21.9;78.1
79356;SHT31;68825;51.978;5.654;2023-09-18T07:53:42;21.9;78.3
79356;SHT31;68825;51.978;5.654;2023-09-18T07:56:11;21.9;78.6
79356;SHT31;68825;51.978;5.654;2023-09-18T07:58:40;21.9;78.8
79356;SHT31;68825;51.978;5.654;2023-09-18T08:01:09;21.9;78.2
79356;SHT31;68825;51.978;5.654;2023-09-18T08:03:38;22.0;77.8
79356;SHT31;68825;51.978;5.654;2023-09-18T08:06:06;22.0;77.8
79356;SHT31;68825;51.978;5.654;2023-09-18T08:08:36;22.0;77.6
79356;SHT31;68825;51.978;5.654;2023-09-18T08:11:08;22.0;77.5
79356;SHT31;68825;51.978;5.654;2023-09-18T08:13:37;22.0;77.5
79356;SHT31;68825;51.978;5.654;2023-09-18T08:16:07;22.0;77.7
79356;SHT31;68825;51.978;5.654;2023-09-18T08:18:35;22.0;77.2
79356;SHT31;68825;51.978;5.654;2023-09-18T08:21:07;22.0;77.1
79356;SHT31;68825;51.978;5.654;2023-09-18T08:23:40;22.0;77.7
79356;SHT31;68825;51.978;5.654;2023-09-18T08:26:09;22.0;77.8
79356;SHT31;68825;51.978;5.654;2023-09-18T08:28:37;22.0;76.4
79356;SHT31;68825;51.978;5.654;2023-09-18T08:31:09;22.0;76.5
79356;SHT31;68825;51.978;5.654;2023-09-18T08:33:40;22.0;77.0
79356;SHT31;68825;51.978;5.654;2023-09-18T08:36:11;22.0;75.6
79356;SHT31;68825;51.978;5.654;2023-09-18T08:38:42;22.0;75.2
79356;SHT31;68825;51.978;5.654;2023-09-18T08:41:13;22.0;75.7
79356;SHT31;68825;51.978;5.654;2023-09-18T08:43:43;22.0;76.0
79356;SHT31;68825;51.978;5.654;2023-09-18T08:46:16;22.0;76.2
79356;SHT31;68825;51.978;5.654;2023-09-18T08:48:45;22.0;75.8
79356;SHT31;68825;51.978;5.654;2023-09-18T08:51:17;22.0;75.6
79356;SHT31;68825;51.978;5.654;2023-09-18T08:53:46;22.0;75.4
79356;SHT31;68825;51.978;5.654;2023-09-18T08:56:19;22.0;75.4
79356;SHT31;68825;51.978;5.654;2023-09-18T08:58:50;22.0;75.4
79356;SHT31;68825;51.978;5.654;2023-09-18T09:01:19;22.0;75.4
79356;SHT31;68825;51.978;5.654;2023-09-18T09:03:48;22.0;75.3
79356;SHT31;68825;51.978;5.654;2023-09-18T09:06:17;22.0;75.2
79356;SHT31;68825;51.978;5.654;2023-09-18T09:08:46;22.0;75.6
79356;SHT31;68825;51.978;5.654;2023-09-18T09:11:16;22.0;74.4
79356;SHT31;68825;51.978;5.654;2023-09-18T09:13:46;22.0;74.1
79356;SHT31;68825;51.978;5.654;2023-09-18T09:16:17;22.0;74.3
79356;SHT31;68825;51.978;5.654;2023-09-18T09:18:50;22.0;74.3
79356;SHT31;68825;51.978;5.654;2023-09-18T09:21:20;22.1;74.4
79356;SHT31;68825;51.978;5.654;2023-09-18T09:23:50;22.1;74.9
79356;SHT31;68825;51.978;5.654;2023-09-18T09:26:21;22.1;75.2
79356;SHT31;68825;51.978;5.654;2023-09-18T09:28:53;22.1;73.9
79356;SHT31;68825;51.978;5.654;2023-09-18T09:31:27;22.1;74.2
79356;SHT31;68825;51.978;5.654;2023-09-18T09:33:57;22.1;73.5
79356;SHT31;68825;51.978;5.654;2023-09-18T09:36:28;22.1;73.9
79356;SHT31;68825;51.978;5.654;2023-09-18T09:38:57;22.2;73.9
79356;SHT31;68825;51.978;5.654;2023-09-18T09:41:27;22.2;74.3
79356;SHT31;68825;51.978;5.654;2023-09-18T09:43:56;22.2;73.3
79356;SHT31;68825;51.978;5.654;2023-09-18T09:46:25;22.2;74.6
79356;SHT31;68825;51.978;5.654;2023-09-18T09:49:03;22.3;74.7
79356;SHT31;68825;51.978;5.654;2023-09-18T09:51:33;22.3;73.4
79356;SHT31;68825;51.978;5.654;2023-09-18T09:54:02;22.4;72.9
79356;SHT31;68825;51.978;5.654;2023-09-18T09:56:43;22.4;72.7
79356;SHT31;68825;51.978;5.654;2023-09-18T09:59:14;22.5;72.7
79356;SHT31;68825;51.978;5.654;2023-09-18T10:01:47;22.5;73.2
79356;SHT31;68825;51.978;5.654;2023-09-18T10:04:18;22.6;73.3
79356;SHT31;68825;51.978;5.654;2023-09-18T10:06:52;22.7;72.1
79356;SHT31;68825;51.978;5.654;2023-09-18T10:09:22;22.7;71.4
79356;SHT31;68825;51.978;5.654;2023-09-18T10:11:54;22.8;69.8
79356;SHT31;68825;51.978;5.654;2023-09-18T10:14:30;22.8;69.5
79356;SHT31;68825;51.978;5.654;2023-09-18T10:17:09;22.8;70.8
79356;SHT31;68825;51.978;5.654;2023-09-18T10:19:49;22.8;70.5
79356;SHT31;68825;51.978;5.654;2023-09-18T10:22:30;22.8;69.4
79356;SHT31;68825;51.978;5.654;2023-09-18T10:25:11;22.8;70.2
79356;SHT31;68825;51.978;5.654;2023-09-18T10:27:45;22.9;69.1
79356;SHT31;68825;51.978;5.654;2023-09-18T10:30:16;22.9;69.2
79356;SHT31;68825;51.978;5.654;2023-09-18T10:32:46;22.9;69.1
79356;SHT31;68825;51.978;5.654;2023-09-18T10:35:14;22.9;69.5
79356;SHT31;68825;51.978;5.654;2023-09-18T10:37:45;22.9;69.0
79356;SHT31;68825;51.978;5.654;2023-09-18T10:40:17;22.9;68.3
79356;SHT31;68825;51.978;5.654;2023-09-18T10:42:48;22.9;69.5
79356;SHT31;68825;51.978;5.654;2023-09-18T10:45:19;22.9;67.7
79356;SHT31;68825;51.978;5.654;2023-09-18T10:47:49;22.9;67.1
79356;SHT31;68825;51.978;5.654;2023-09-18T10:50:26;22.9;68.0
79356;SHT31;68825;51.978;5.654;2023-09-18T10:52:57;22.9;68.7
79356;SHT31;68825;51.978;5.654;2023-09-18T10:55:26;22.9;68.6
79356;SHT31;68825;51.978;5.654;2023-09-18T10:57:57;22.9;68.4
79356;SHT31;68825;51.978;5.654;2023-09-18T11:00:29;22.9;69.5
79356;SHT31;68825;51.978;5.654;2023-09-18T11:03:12;22.9;68.8
79356;SHT31;68825;51.978;5.654;2023-09-18T11:05:44;22.9;68.8
79356;SHT31;68825;51.978;5.654;2023-09-18T11:08:30;23.0;70.4
79356;SHT31;68825;51.978;5.654;2023-09-18T11:11:05;23.0;69.3
79356;SHT31;68825;51.978;5.654;2023-09-18T11:13:42;23.1;70.3
79356;SHT31;68825;51.978;5.654;2023-09-18T11:16:17;23.1;68.4
79356;SHT31;68825;51.978;5.654;2023-09-18T11:18:49;23.2;67.0
79356;SHT31;68825;51.978;5.654;2023-09-18T11:21:26;23.2;66.6
79356;SHT31;68825;51.978;5.654;2023-09-18T11:24:02;23.3;66.0
79356;SHT31;68825;51.978;5.654;2023-09-18T11:26:33;23.3;65.3
79356;SHT31;68825;51.978;5.654;2023-09-18T11:29:05;23.3;65.1
79356;SHT31;68825;51.978;5.654;2023-09-18T11:31:46;23.2;66.0
79356;SHT31;68825;51.978;5.654;2023-09-18T11:34:20;23.2;66.2
79356;SHT31;68825;51.978;5.654;2023-09-18T11:36:50;23.3;67.9
79356;SHT31;68825;51.978;5.654;2023-09-18T11:39:36;23.3;68.4
79356;SHT31;68825;51.978;5.654;2023-09-18T11:42:10;23.3;67.8
79356;SHT31;68825;51.978;5.654;2023-09-18T11:44:39;23.4;65.7
79356;SHT31;68825;51.978;5.654;2023-09-18T11:47:16;23.4;66.9
79356;SHT31;68825;51.978;5.654;2023-09-18T11:49:50;23.5;66.4
79356;SHT31;68825;51.978;5.654;2023-09-18T11:52:24;23.5;66.6
79356;SHT31;68825;51.978;5.654;2023-09-18T11:54:56;23.6;67.7
79356;SHT31;68825;51.978;5.654;2023-09-18T11:57:25;23.7;67.5
79356;SHT31;68825;51.978;5.654;2023-09-18T11:59:55;23.8;65.7
79356;SHT31;68825;51.978;5.654;2023-09-18T12:02:30;23.8;64.8
79356;SHT31;68825;51.978;5.654;2023-09-18T12:05:05;23.9;64.6
79356;SHT31;68825;51.978;5.654;2023-09-18T12:07:34;23.9;62.4
79356;SHT31;68825;51.978;5.654;2023-09-18T12:10:07;23.9;63.6
79356;SHT31;68825;51.978;5.654;2023-09-18T12:12:37;23.9;62.3
79356;SHT31;68825;51.978;5.654;2023-09-18T12:15:06;23.9;62.0
79356;SHT31;68825;51.978;5.654;2023-09-18T12:17:36;23.8;62.5
79356;SHT31;68825;51.978;5.654;2023-09-18T12:20:05;23.8;62.6
79356;SHT31;68825;51.978;5.654;2023-09-18T12:22:34;23.7;63.4
79356;SHT31;68825;51.978;5.654;2023-09-18T12:25:10;23.8;63.5
79356;SHT31;68825;51.978;5.654;2023-09-18T12:27:40;23.8;63.6
79356;SHT31;68825;51.978;5.654;2023-09-18T12:30:13;23.8;64.7
79356;SHT31;68825;51.978;5.654;2023-09-18T12:32:47;23.9;62.6
79356;SHT31;68825;51.978;5.654;2023-09-18T12:35:16;23.9;63.8
79356;SHT31;68825;51.978;5.654;2023-09-18T12:37:45;23.9;64.1
79356;SHT31;68825;51.978;5.654;2023-09-18T12:40:26;24.0;63.5
79356;SHT31;68825;51.978;5.654;2023-09-18T12:42:57;24.1;63.7
79356;SHT31;68825;51.978;5.654;2023-09-18T12:45:27;24.2;62.8
79356;SHT31;68825;51.978;5.654;2023-09-18T12:47:58;24.3;63.9
79356;SHT31;68825;51.978;5.654;2023-09-18T12:50:28;24.3;61.4
79356;SHT31;68825;51.978;5.654;2023-09-18T12:53:08;24.4;60.1
79356;SHT31;68825;51.978;5.654;2023-09-18T12:55:38;24.4;61.6
79356;SHT31;68825;51.978;5.654;2023-09-18T12:58:10;24.5;62.9
79356;SHT31;68825;51.978;5.654;2023-09-18T13:00:44;24.5;59.8
79356;SHT31;68825;51.978;5.654;2023-09-18T13:03:14;24.5;60.3
79356;SHT31;68825;51.978;5.654;2023-09-18T13:05:43;24.5;60.4
79356;SHT31;68825;51.978;5.654;2023-09-18T13:08:13;24.5;61.5
79356;SHT31;68825;51.978;5.654;2023-09-18T13:10:43;24.6;59.9
79356;SHT31;68825;51.978;5.654;2023-09-18T13:13:18;24.6;59.7
79356;SHT31;68825;51.978;5.654;2023-09-18T13:15:48;24.7;59.3
79356;SHT31;68825;51.978;5.654;2023-09-18T13:18:17;24.7;58.9
79356;SHT31;68825;51.978;5.654;2023-09-18T13:20:48;24.7;58.7
79356;SHT31;68825;51.978;5.654;2023-09-18T13:23:16;24.7;59.1
79356;SHT31;68825;51.978;5.654;2023-09-18T13:25:45;24.8;58.0
79356;SHT31;68825;51.978;5.654;2023-09-18T13:28:14;24.8;57.8
79356;SHT31;68825;51.978;5.654;2023-09-18T13:30:47;24.8;59.2
79356;SHT31;68825;51.978;5.654;2023-09-18T13:33:16;24.8;58.1
79356;SHT31;68825;51.978;5.654;2023-09-18T13:35:46;24.8;60.6
79356;SHT31;68825;51.978;5.654;2023-09-18T13:38:15;24.8;59.1
79356;SHT31;68825;51.978;5.654;2023-09-18T13:40:47;24.9;58.2
79356;SHT31;68825;51.978;5.654;2023-09-18T13:43:16;24.9;58.3
79356;SHT31;68825;51.978;5.654;2023-09-18T13:45:47;25.0;58.4
79356;SHT31;68825;51.978;5.654;2023-09-18T13:48:18;25.0;58.5
79356;SHT31;68825;51.978;5.654;2023-09-18T13:50:48;25.1;59.5
79356;SHT31;68825;51.978;5.654;2023-09-18T13:53:18;25.1;59.3
79356;SHT31;68825;51.978;5.654;2023-09-18T13:55:46;25.2;59.6
79356;SHT31;68825;51.978;5.654;2023-09-18T13:58:15;25.2;57.5
79356;SHT31;68825;51.978;5.654;2023-09-18T14:00:43;25.3;56.6
79356;SHT31;68825;51.978;5.654;2023-09-18T14:03:13;25.3;56.7
79356;SHT31;68825;51.978;5.654;2023-09-18T14:05:44;25.3;57.9
79356;SHT31;68825;51.978;5.654;2023-09-18T14:08:12;25.4;57.8
79356;SHT31;68825;51.978;5.654;2023-09-18T14:10:43;25.4;57.8
79356;SHT31;68825;51.978;5.654;2023-09-18T14:13:11;25.4;56.7
79356;SHT31;68825;51.978;5.654;2023-09-18T14:15:41;25.5;57.3
79356;SHT31;68825;51.978;5.654;2023-09-18T14:18:10;25.5;55.3
79356;SHT31;68825;51.978;5.654;2023-09-18T14:20:39;25.5;56.5
79356;SHT31;68825;51.978;5.654;2023-09-18T14:23:09;25.5;55.8
79356;SHT31;68825;51.978;5.654;2023-09-18T14:25:37;25.5;55.2
79356;SHT31;68825;51.978;5.654;2023-09-18T14:28:07;25.5;54.9
79356;SHT31;68825;51.978;5.654;2023-09-18T14:30:36;25.5;54.0
79356;SHT31;68825;51.978;5.654;2023-09-18T14:33:05;25.5;54.1
79356;SHT31;68825;51.978;5.654;2023-09-18T14:35:35;25.5;55.3
79356;SHT31;68825;51.978;5.654;2023-09-18T14:38:04;25.5;53.4
79356;SHT31;68825;51.978;5.654;2023-09-18T14:40:33;25.5;53.7
79356;SHT31;68825;51.978;5.654;2023-09-18T14:43:02;25.5;53.2
79356;SHT31;68825;51.978;5.654;2023-09-18T14:45:31;25.5;52.3
79356;SHT31;68825;51.978;5.654;2023-09-18T14:48:06;25.5;52.3
79356;SHT31;68825;51.978;5.654;2023-09-18T14:50:35;25.5;52.2
79356;SHT31;68825;51.978;5.654;2023-09-18T14:53:05;25.5;52.3
79356;SHT31;68825;51.978;5.654;2023-09-18T14:55:35;25.4;52.5
79356;SHT31;68825;51.978;5.654;2023-09-18T14:58:04;25.4;53.7
79356;SHT31;68825;51.978;5.654;2023-09-18T15:00:33;25.4;54.0
79356;SHT31;68825;51.978;5.654;2023-09-18T15:03:02;25.3;53.9
79356;SHT31;68825;51.978;5.654;2023-09-18T15:05:31;25.3;54.5
79356;SHT31;68825;51.978;5.654;2023-09-18T15:07:59;25.3;54.4
79356;SHT31;68825;51.978;5.654;2023-09-18T15:10:28;25.2;54.3
79356;SHT31;68825;51.978;5.654;2023-09-18T15:12:57;25.2;54.1
79356;SHT31;68825;51.978;5.654;2023-09-18T15:15:25;25.1;55.0
79356;SHT31;68825;51.978;5.654;2023-09-18T15:17:54;25.1;54.7
79356;SHT31;68825;51.978;5.654;2023-09-18T15:20:24;25.1;55.8
79356;SHT31;68825;51.978;5.654;2023-09-18T15:22:52;25.0;58.6
79356;SHT31;68825;51.978;5.654;2023-09-18T15:25:22;24.7;58.6
79356;SHT31;68825;51.978;5.654;2023-09-18T15:27:51;23.5;61.2
79356;SHT31;68825;51.978;5.654;2023-09-18T15:30:23;22.4;65.8
79356;SHT31;68825;51.978;5.654;2023-09-18T15:32:54;21.8;66.9
79356;SHT31;68825;51.978;5.654;2023-09-18T15:35:24;21.4;68.0
79356;SHT31;68825;51.978;5.654;2023-09-18T15:37:53;21.1;68.2
79356;SHT31;68825;51.978;5.654;2023-09-18T15:40:23;20.9;69.0
79356;SHT31;68825;51.978;5.654;2023-09-18T15:42:51;20.7;70.1
79356;SHT31;68825;51.978;5.654;2023-09-18T15:45:23;20.5;71.6
79356;SHT31;68825;51.978;5.654;2023-09-18T15:47:54;20.4;71.2
79356;SHT31;68825;51.978;5.654;2023-09-18T15:50:23;20.3;71.3
79356;SHT31;68825;51.978;5.654;2023-09-18T15:52:52;20.2;72.2
79356;SHT31;68825;51.978;5.654;2023-09-18T15:55:21;20.1;72.8
79356;SHT31;68825;51.978;5.654;2023-09-18T15:57:50;20.0;72.7
79356;SHT31;68825;51.978;5.654;2023-09-18T16:00:19;20.0;74.1
79356;SHT31;68825;51.978;5.654;2023-09-18T16:02:48;19.9;74.6
79356;SHT31;68825;51.978;5.654;2023-09-18T16:05:18;19.9;75.2
79356;SHT31;68825;51.978;5.654;2023-09-18T16:07:52;19.9;74.2
79356;SHT31;68825;51.978;5.654;2023-09-18T16:10:25;19.9;75.4
79356;SHT31;68825;51.978;5.654;2023-09-18T16:12:54;19.9;74.8
79356;SHT31;68825;51.978;5.654;2023-09-18T16:15:22;19.9;75.9
79356;SHT31;68825;51.978;5.654;2023-09-18T16:17:54;19.9;75.7
79356;SHT31;68825;51.978;5.654;2023-09-18T16:20:23;19.9;75.5
79356;SHT31;68825;51.978;5.654;2023-09-18T16:22:52;19.9;75.1